French Lick, IN (47432)

2:53 AM EDT on August 31, 2015 (GMT -0400)
fL | | Change Station
CLOSE
Current Station
Personal Weather Station
Location: French Lick, IN
Elevation: 758 ft
Nearby Weather Stations

Elev 758 ft 38.53 °N, 86.65 °W | Updated 9 minutes ago

Clear
Clear
69.0 °F
Feels Like 69.0 °F
N
0.0
Wind Variable Wind from SSW
Gusts 2.0 mph

Today
High -- | Low -- °F
--% Chance of Precip.
Yesterday
High -- | Low -- °F
Precip. -- in
7:14 AM 8:18 PM
Waning Gibbous, 97% visible
Pressure 30.07 in
Visibility 5.0 miles
Clouds Clear
Dew Point 69 °F
Humidity 98%
Rainfall 0.00 in
Snow Depth Not available.
UV 0 out of 12
Pollen 9.50 out of 12
Air Quality Not available.
Flu Activity Not available.
METAR KHNB 310615Z AUTO 16004KT 5SM CLR 21/19 A3007 RMK AO1
Pressure 30.07 in
Visibility 5.0 miles
Clouds Clear
Dew Point 69 °F
Humidity 98%
Rainfall 0.00 in
Snow Depth Not available.
UV 0 out of 12
Pollen 9.50 out of 12
Air Quality Not available.
Flu Activity Not available.
METAR KHNB 310615Z AUTO 16004KT 5SM CLR 21/19 A3007 RMK AO1

10-Day Weather Forecast

×

Almanac

Astronomy

Aug. 31, 2015 Rise Set
Actual Time
Civil Twilight
Nautical Twilight
Astronomical Twilight
Moon
Length of Visible Light
Length of Day
Tomorrow will be .
, % of the Moon is Illuminated

Today's Extremes

State Highs State Lows

Community

WunderPhotos

Upload Photos

1,851,217 photos uploaded!

WunderBlogs® & News

Nearby

Air Quality

  Air Quality AQ Index Pollutant
Not available.

Snow Depth

Station Depth Elevation

Earthquake Activity

City Distance Mag. Time & Date
Minimum magnitude displayed is 2.5.

Coastal Water Temperatures

Place Temperature

Stations

Nearby Weather Stations

Station Location Temp. Windchill Dew Point Humidity Wind Precip. Elev Updated Type